Flight Track Log - Related Links

Times and Time Zones

All times are in EDT time to prevent confusion due to time zone crossing. See the EGF2929 flight status page for this flight to view local times or setup timezone preferences in your user account.

Time Position Orientation Groundspeed Altitude Reporting Facility
EDT Latitude Longitude Course Direction KTS MPH feet Rate Location/Type
06:11PM 41.6766 -88.1085 206° Southwest  Level Estimated
06:12PM 41.5756 -88.1751 206° Southwest  Level Estimated
06:13PM 41.4745 -88.2415 206° Southwest  Level Estimated
06:14PM 41.3735 -88.3077 206° Southwest  Level Estimated
06:15PM 41.2723 -88.3737 206° Southwest  Level Estimated
06:16PM 41.1712 -88.4395 206° Southwest  Level Estimated
06:17PM 41.0700 -88.5051 206° Southwest  Level Estimated
06:18PM 40.9688 -88.5705 206° Southwest  Level Estimated
06:19PM 40.8675 -88.6357 206° Southwest  Level Estimated
06:20PM 40.7662 -88.7006 206° Southwest  Level Estimated
06:21PM 40.6649 -88.7654 206° Southwest  Level Estimated
06:22PM 40.5635 -88.8300 206° Southwest  Level Estimated
06:23PM 40.4621 -88.8944 206° Southwest  Level Estimated
06:24PM 40.3606 -88.9586 206° Southwest  Level Estimated
06:25PM 40.2592 -89.0226 206° Southwest  Level Estimated
06:26PM 40.1577 -89.0864 206° Southwest  Level Estimated
06:27PM 40.0561 -89.1501 206° Southwest  Level Estimated
06:28PM 39.9545 -89.2135 206° Southwest  Level Estimated
06:29PM 39.8529 -89.2767 206° Southwest  Level Estimated
06:30PM 39.7513 -89.3398 206° Southwest  Level Estimated
06:31PM 39.6496 -89.4027 205° Southwest  Level Estimated
06:32PM 39.5479 -89.4654 205° Southwest  Level Estimated
06:33PM 39.4461 -89.5279 205° Southwest  Level Estimated
06:34PM 39.3443 -89.5902 205° Southwest  Level Estimated
06:35PM 39.2425 -89.6524 205° Southwest  Level Estimated
06:36PM 39.1406 -89.7143 205° Southwest  Level Estimated
06:37PM 39.0387 -89.7761 205° Southwest  Level Estimated
06:38PM 38.9368 -89.8377 205° Southwest  Level Estimated
06:39PM 38.8349 -89.8991 205° Southwest  Level Estimated
06:40PM 38.7329 -89.9604 205° Southwest  Level Estimated
06:41PM 38.6309 -90.0215 205° Southwest  Level Estimated
06:42PM 38.5288 -90.0824 205° Southwest  Level Estimated
06:43PM 38.4268 -90.1431 205° Southwest  Level Estimated
06:44PM 38.3247 -90.2037 205° Southwest  Level Estimated
06:45PM 38.2225 -90.2641 205° Southwest  Level Estimated
06:46PM 38.1203 -90.3243 205° Southwest  Level Estimated
06:47PM 38.0181 -90.3843 205° Southwest  Level Estimated
06:48PM 37.9159 -90.4442 205° Southwest  Level Estimated
06:49PM 37.8136 -90.5039 205° Southwest  Level Estimated
06:50PM 37.7114 -90.5635 205° Southwest  Level Estimated
06:51PM 37.6090 -90.6229 205° Southwest  Level Estimated
06:52PM 37.5067 -90.6821 205° Southwest  Level Estimated
06:53PM 37.4043 -90.7412 205° Southwest  Level Estimated
06:54PM 37.3019 -90.8001 205° Southwest  Level Estimated
06:55PM 37.1995 -90.8588 205° Southwest  Level Estimated
06:56PM 37.0970 -90.9174 205° Southwest  Level Estimated
06:57PM 36.9945 -90.9758 204° Southwest  Level Estimated
06:58PM 36.8920 -91.0341 204° Southwest  Level Estimated
06:59PM 36.7894 -91.0922 204° Southwest  Level Estimated
07:00PM 36.6868 -91.1502 204° Southwest  Level Estimated
07:01PM 36.5842 -91.2080 204° Southwest  Level Estimated
07:02PM 36.4816 -91.2656 204° Southwest  Level Estimated
07:03PM 36.3789 -91.3231 204° Southwest  Level Estimated
07:04PM 36.2762 -91.3805 204° Southwest  Level Estimated
07:05PM 36.1735 -91.4377 204° Southwest  Level Estimated
07:06PM 36.0708 -91.4947 204° Southwest  Level Estimated
07:07PM 35.9680 -91.5516 204° Southwest  Level Estimated
07:08PM 35.8652 -91.6084 204° Southwest  Level Estimated
07:09PM 35.7623 -91.6650 204° Southwest  Level Estimated
07:10PM 35.6595 -91.7214 204° Southwest  Level Estimated
07:11PM 35.5566 -91.7777 204° Southwest  Level Estimated
07:12PM 35.4537 -91.8339 204° Southwest  Level Estimated
07:13PM 35.3508 -91.8899 204° Southwest  Level Estimated
07:14PM 35.2478 -91.9458 204° Southwest  Level Estimated
07:15PM 35.1448 -92.0015 204° Southwest  Level Estimated
07:16PM 35.0418 -92.0571 204° Southwest  Level Estimated
07:17PM 34.9388 -92.1126 204° Southwest  Level Estimated
07:18PM 34.8357 -92.1679 204° Southwest  Level Estimated
07:19PM 34.7326 -92.2231 204° Southwest  Level Estimated
07:20PM 34.7294 -92.2248 204° Southwest  Level Estimated
07:21PM 34.7294 -92.2248 North  Level Estimated
07:22PM 34.7294 -92.2248 North  Level Estimated
07:23PM 34.7294 -92.2248 North  Level Estimated
07:24PM 34.7294 -92.2248 North  Level Estimated
07:25PM 34.7294 -92.2248 North  Level Estimated
07:26PM 34.7294 -92.2248 North  Level Estimated

Login

Don't have an account? Register now (free) for customized features, flight alerts, and more!